sensor_id;sensor_type;location;lat;lon;timestamp;P1;durP1;ratioP1;P2;durP2;ratioP2
27857;SDS011;16852;51.446;6.528;2022-08-19T00:01:20;4.70;;;3.40;;
27857;SDS011;16852;51.446;6.528;2022-08-19T00:03:21;3.65;;;3.20;;
27857;SDS011;16852;51.446;6.528;2022-08-19T00:05:22;3.85;;;3.13;;
27857;SDS011;16852;51.446;6.528;2022-08-19T00:07:23;7.68;;;3.20;;
27857;SDS011;16852;51.446;6.528;2022-08-19T00:09:24;4.20;;;3.38;;
27857;SDS011;16852;51.446;6.528;2022-08-19T00:11:25;4.72;;;3.50;;
27857;SDS011;16852;51.446;6.528;2022-08-19T00:13:27;4.18;;;3.78;;
27857;SDS011;16852;51.446;6.528;2022-08-19T00:15:28;4.07;;;3.47;;
27857;SDS011;16852;51.446;6.528;2022-08-19T00:17:29;4.93;;;2.97;;
27857;SDS011;16852;51.446;6.528;2022-08-19T00:19:30;3.67;;;3.10;;
27857;SDS011;16852;51.446;6.528;2022-08-19T00:21:31;4.95;;;3.08;;
27857;SDS011;16852;51.446;6.528;2022-08-19T00:23:31;3.22;;;2.83;;
27857;SDS011;16852;51.446;6.528;2022-08-19T00:25:34;4.90;;;3.72;;
27857;SDS011;16852;51.446;6.528;2022-08-19T00:27:36;3.95;;;3.50;;
27857;SDS011;16852;51.446;6.528;2022-08-19T00:29:37;3.92;;;3.53;;
27857;SDS011;16852;51.446;6.528;2022-08-19T00:31:38;4.00;;;3.08;;
27857;SDS011;16852;51.446;6.528;2022-08-19T00:33:40;5.15;;;3.65;;
27857;SDS011;16852;51.446;6.528;2022-08-19T00:35:40;3.90;;;3.25;;
27857;SDS011;16852;51.446;6.528;2022-08-19T00:37:41;4.75;;;3.45;;
27857;SDS011;16852;51.446;6.528;2022-08-19T00:39:43;4.68;;;3.80;;
27857;SDS011;16852;51.446;6.528;2022-08-19T00:41:44;3.95;;;3.30;;
27857;SDS011;16852;51.446;6.528;2022-08-19T00:43:59;3.40;;;3.08;;
27857;SDS011;16852;51.446;6.528;2022-08-19T00:46:02;4.95;;;3.60;;
27857;SDS011;16852;51.446;6.528;2022-08-19T00:48:04;4.22;;;3.50;;
27857;SDS011;16852;51.446;6.528;2022-08-19T00:50:05;6.18;;;3.60;;
27857;SDS011;16852;51.446;6.528;2022-08-19T00:52:09;4.80;;;3.63;;
27857;SDS011;16852;51.446;6.528;2022-08-19T00:54:13;5.22;;;3.85;;
27857;SDS011;16852;51.446;6.528;2022-08-19T00:56:15;3.75;;;3.38;;
27857;SDS011;16852;51.446;6.528;2022-08-19T00:58:18;3.90;;;3.45;;
27857;SDS011;16852;51.446;6.528;2022-08-19T01:00:21;4.30;;;3.38;;
27857;SDS011;16852;51.446;6.528;2022-08-19T01:02:23;8.40;;;3.30;;
27857;SDS011;16852;51.446;6.528;2022-08-19T01:04:24;4.07;;;3.10;;
27857;SDS011;16852;51.446;6.528;2022-08-19T01:06:25;3.53;;;3.13;;
27857;SDS011;16852;51.446;6.528;2022-08-19T01:08:26;3.70;;;3.30;;
27857;SDS011;16852;51.446;6.528;2022-08-19T01:10:27;5.00;;;3.72;;
27857;SDS011;16852;51.446;6.528;2022-08-19T01:12:30;5.75;;;3.95;;
27857;SDS011;16852;51.446;6.528;2022-08-19T01:14:31;3.80;;;3.13;;
27857;SDS011;16852;51.446;6.528;2022-08-19T01:16:32;4.68;;;3.35;;
27857;SDS011;16852;51.446;6.528;2022-08-19T01:18:39;3.67;;;3.30;;
27857;SDS011;16852;51.446;6.528;2022-08-19T01:20:41;6.93;;;3.28;;
27857;SDS011;16852;51.446;6.528;2022-08-19T01:22:44;6.60;;;3.43;;
27857;SDS011;16852;51.446;6.528;2022-08-19T01:24:48;4.03;;;3.20;;
27857;SDS011;16852;51.446;6.528;2022-08-19T01:26:49;4.47;;;3.50;;
27857;SDS011;16852;51.446;6.528;2022-08-19T01:28:51;3.85;;;3.45;;
27857;SDS011;16852;51.446;6.528;2022-08-19T01:30:54;4.53;;;3.50;;
27857;SDS011;16852;51.446;6.528;2022-08-19T01:32:55;4.45;;;3.65;;
27857;SDS011;16852;51.446;6.528;2022-08-19T01:34:56;3.47;;;3.17;;
27857;SDS011;16852;51.446;6.528;2022-08-19T01:36:57;4.60;;;3.40;;
27857;SDS011;16852;51.446;6.528;2022-08-19T01:38:58;4.93;;;3.47;;
27857;SDS011;16852;51.446;6.528;2022-08-19T01:41:00;5.10;;;3.85;;
27857;SDS011;16852;51.446;6.528;2022-08-19T01:43:01;7.18;;;3.85;;
27857;SDS011;16852;51.446;6.528;2022-08-19T01:45:03;4.47;;;4.03;;
27857;SDS011;16852;51.446;6.528;2022-08-19T01:49:07;5.03;;;3.78;;
27857;SDS011;16852;51.446;6.528;2022-08-19T01:51:08;5.28;;;3.72;;
27857;SDS011;16852;51.446;6.528;2022-08-19T01:53:10;5.47;;;4.03;;
27857;SDS011;16852;51.446;6.528;2022-08-19T01:55:13;4.22;;;3.78;;
27857;SDS011;16852;51.446;6.528;2022-08-19T01:57:15;4.30;;;3.90;;
27857;SDS011;16852;51.446;6.528;2022-08-19T01:59:17;5.60;;;4.18;;
27857;SDS011;16852;51.446;6.528;2022-08-19T02:01:20;4.97;;;4.20;;
27857;SDS011;16852;51.446;6.528;2022-08-19T02:03:21;5.18;;;4.68;;
27857;SDS011;16852;51.446;6.528;2022-08-19T02:05:22;6.72;;;4.38;;
27857;SDS011;16852;51.446;6.528;2022-08-19T02:07:23;4.90;;;4.00;;
27857;SDS011;16852;51.446;6.528;2022-08-19T02:09:24;6.13;;;4.82;;
27857;SDS011;16852;51.446;6.528;2022-08-19T02:11:26;5.00;;;4.03;;
27857;SDS011;16852;51.446;6.528;2022-08-19T02:13:31;4.88;;;4.32;;
27857;SDS011;16852;51.446;6.528;2022-08-19T02:15:33;5.25;;;3.88;;
27857;SDS011;16852;51.446;6.528;2022-08-19T02:17:34;5.13;;;4.53;;
27857;SDS011;16852;51.446;6.528;2022-08-19T02:19:34;4.72;;;4.18;;
27857;SDS011;16852;51.446;6.528;2022-08-19T02:21:35;6.00;;;3.90;;
27857;SDS011;16852;51.446;6.528;2022-08-19T02:23:36;3.58;;;3.28;;
27857;SDS011;16852;51.446;6.528;2022-08-19T02:25:37;4.28;;;3.88;;
27857;SDS011;16852;51.446;6.528;2022-08-19T02:27:38;5.30;;;4.25;;
27857;SDS011;16852;51.446;6.528;2022-08-19T02:29:39;5.10;;;3.75;;
27857;SDS011;16852;51.446;6.528;2022-08-19T02:31:40;4.80;;;4.10;;
27857;SDS011;16852;51.446;6.528;2022-08-19T02:33:41;5.18;;;4.35;;
27857;SDS011;16852;51.446;6.528;2022-08-19T02:35:43;5.05;;;4.45;;
27857;SDS011;16852;51.446;6.528;2022-08-19T02:37:44;6.57;;;4.53;;
27857;SDS011;16852;51.446;6.528;2022-08-19T02:40:03;6.07;;;4.25;;
27857;SDS011;16852;51.446;6.528;2022-08-19T02:42:04;6.13;;;4.03;;
27857;SDS011;16852;51.446;6.528;2022-08-19T02:44:05;7.75;;;4.55;;
27857;SDS011;16852;51.446;6.528;2022-08-19T02:46:16;5.53;;;4.60;;
27857;SDS011;16852;51.446;6.528;2022-08-19T02:48:21;6.28;;;4.75;;
27857;SDS011;16852;51.446;6.528;2022-08-19T02:50:23;5.25;;;4.20;;
27857;SDS011;16852;51.446;6.528;2022-08-19T02:52:24;4.85;;;4.20;;
27857;SDS011;16852;51.446;6.528;2022-08-19T02:54:25;5.80;;;4.82;;
27857;SDS011;16852;51.446;6.528;2022-08-19T02:56:26;5.60;;;4.55;;
27857;SDS011;16852;51.446;6.528;2022-08-19T02:58:27;3.85;;;3.45;;
27857;SDS011;16852;51.446;6.528;2022-08-19T03:00:27;5.78;;;4.65;;
27857;SDS011;16852;51.446;6.528;2022-08-19T03:02:28;7.85;;;5.05;;
27857;SDS011;16852;51.446;6.528;2022-08-19T03:04:30;5.18;;;4.60;;
27857;SDS011;16852;51.446;6.528;2022-08-19T03:06:31;6.45;;;4.95;;
27857;SDS011;16852;51.446;6.528;2022-08-19T03:08:32;7.20;;;4.57;;
27857;SDS011;16852;51.446;6.528;2022-08-19T03:10:33;6.93;;;4.78;;
27857;SDS011;16852;51.446;6.528;2022-08-19T03:12:39;5.25;;;4.50;;
27857;SDS011;16852;51.446;6.528;2022-08-19T03:14:39;6.47;;;4.60;;
27857;SDS011;16852;51.446;6.528;2022-08-19T03:16:42;5.00;;;4.47;;
27857;SDS011;16852;51.446;6.528;2022-08-19T03:18:48;5.50;;;4.57;;
27857;SDS011;16852;51.446;6.528;2022-08-19T03:20:50;6.28;;;4.72;;
27857;SDS011;16852;51.446;6.528;2022-08-19T03:22:54;6.65;;;4.70;;
27857;SDS011;16852;51.446;6.528;2022-08-19T03:24:54;5.63;;;4.25;;
27857;SDS011;16852;51.446;6.528;2022-08-19T03:26:55;6.80;;;5.28;;
27857;SDS011;16852;51.446;6.528;2022-08-19T03:29:02;6.80;;;5.88;;
27857;SDS011;16852;51.446;6.528;2022-08-19T03:31:06;6.03;;;5.35;;
27857;SDS011;16852;51.446;6.528;2022-08-19T03:33:10;6.47;;;4.78;;
27857;SDS011;16852;51.446;6.528;2022-08-19T03:35:13;7.00;;;5.75;;
27857;SDS011;16852;51.446;6.528;2022-08-19T03:37:14;8.75;;;7.03;;
27857;SDS011;16852;51.446;6.528;2022-08-19T03:39:15;7.85;;;6.78;;
27857;SDS011;16852;51.446;6.528;2022-08-19T03:41:17;8.45;;;6.97;;
27857;SDS011;16852;51.446;6.528;2022-08-19T03:43:19;7.97;;;6.18;;
27857;SDS011;16852;51.446;6.528;2022-08-19T03:45:21;8.00;;;5.65;;
27857;SDS011;16852;51.446;6.528;2022-08-19T03:47:21;6.65;;;5.97;;
27857;SDS011;16852;51.446;6.528;2022-08-19T03:49:22;6.80;;;5.88;;
27857;SDS011;16852;51.446;6.528;2022-08-19T03:53:27;7.72;;;6.22;;
27857;SDS011;16852;51.446;6.528;2022-08-19T03:55:29;7.93;;;6.45;;
27857;SDS011;16852;51.446;6.528;2022-08-19T03:57:30;7.72;;;6.47;;
27857;SDS011;16852;51.446;6.528;2022-08-19T03:59:33;7.90;;;6.57;;
27857;SDS011;16852;51.446;6.528;2022-08-19T04:01:35;7.13;;;6.15;;
27857;SDS011;16852;51.446;6.528;2022-08-19T04:03:35;8.43;;;6.18;;
27857;SDS011;16852;51.446;6.528;2022-08-19T04:05:36;10.32;;;6.63;;
27857;SDS011;16852;51.446;6.528;2022-08-19T04:07:37;8.73;;;6.35;;
27857;SDS011;16852;51.446;6.528;2022-08-19T04:09:38;13.80;;;5.95;;
27857;SDS011;16852;51.446;6.528;2022-08-19T04:11:57;7.45;;;6.05;;
27857;SDS011;16852;51.446;6.528;2022-08-19T04:13:58;7.85;;;5.68;;
27857;SDS011;16852;51.446;6.528;2022-08-19T04:16:00;8.02;;;6.95;;
27857;SDS011;16852;51.446;6.528;2022-08-19T04:18:01;10.18;;;7.78;;
27857;SDS011;16852;51.446;6.528;2022-08-19T04:20:02;10.15;;;7.65;;
27857;SDS011;16852;51.446;6.528;2022-08-19T04:22:03;10.40;;;7.57;;
27857;SDS011;16852;51.446;6.528;2022-08-19T04:24:04;9.65;;;7.70;;
27857;SDS011;16852;51.446;6.528;2022-08-19T04:26:05;10.23;;;8.35;;
27857;SDS011;16852;51.446;6.528;2022-08-19T04:28:06;10.48;;;8.63;;
27857;SDS011;16852;51.446;6.528;2022-08-19T04:30:08;8.02;;;7.07;;
27857;SDS011;16852;51.446;6.528;2022-08-19T04:32:09;9.43;;;8.20;;
27857;SDS011;16852;51.446;6.528;2022-08-19T04:34:11;10.80;;;8.35;;
27857;SDS011;16852;51.446;6.528;2022-08-19T04:36:18;11.57;;;8.77;;
27857;SDS011;16852;51.446;6.528;2022-08-19T04:38:21;11.00;;;8.68;;
27857;SDS011;16852;51.446;6.528;2022-08-19T04:40:24;10.60;;;8.60;;
27857;SDS011;16852;51.446;6.528;2022-08-19T04:42:44;12.95;;;10.98;;
27857;SDS011;16852;51.446;6.528;2022-08-19T04:44:44;17.17;;;11.45;;
27857;SDS011;16852;51.446;6.528;2022-08-19T04:46:45;17.77;;;13.65;;
27857;SDS011;16852;51.446;6.528;2022-08-19T04:50:48;14.77;;;12.48;;
27857;SDS011;16852;51.446;6.528;2022-08-19T04:52:50;16.73;;;14.07;;
27857;SDS011;16852;51.446;6.528;2022-08-19T04:54:51;17.35;;;14.38;;
27857;SDS011;16852;51.446;6.528;2022-08-19T04:56:52;19.90;;;15.45;;
27857;SDS011;16852;51.446;6.528;2022-08-19T04:58:53;19.55;;;15.73;;
27857;SDS011;16852;51.446;6.528;2022-08-19T05:00:55;17.43;;;14.13;;
27857;SDS011;16852;51.446;6.528;2022-08-19T05:02:55;18.65;;;14.77;;
27857;SDS011;16852;51.446;6.528;2022-08-19T05:04:57;18.05;;;15.10;;
27857;SDS011;16852;51.446;6.528;2022-08-19T05:07:01;18.45;;;15.20;;
27857;SDS011;16852;51.446;6.528;2022-08-19T05:09:03;18.33;;;14.70;;
27857;SDS011;16852;51.446;6.528;2022-08-19T05:11:25;19.15;;;14.80;;
27857;SDS011;16852;51.446;6.528;2022-08-19T05:13:27;18.83;;;15.02;;
27857;SDS011;16852;51.446;6.528;2022-08-19T05:15:28;22.60;;;16.52;;
27857;SDS011;16852;51.446;6.528;2022-08-19T05:17:28;23.05;;;17.08;;
27857;SDS011;16852;51.446;6.528;2022-08-19T05:19:29;20.80;;;16.98;;
27857;SDS011;16852;51.446;6.528;2022-08-19T05:21:48;20.75;;;17.40;;
27857;SDS011;16852;51.446;6.528;2022-08-19T05:24:08;23.60;;;17.65;;
27857;SDS011;16852;51.446;6.528;2022-08-19T05:26:09;21.80;;;17.95;;
27857;SDS011;16852;51.446;6.528;2022-08-19T05:28:10;24.52;;;19.35;;
27857;SDS011;16852;51.446;6.528;2022-08-19T05:30:11;23.50;;;19.40;;
27857;SDS011;16852;51.446;6.528;2022-08-19T05:32:12;23.65;;;19.95;;
27857;SDS011;16852;51.446;6.528;2022-08-19T05:34:13;24.52;;;20.40;;
27857;SDS011;16852;51.446;6.528;2022-08-19T05:36:14;22.40;;;18.95;;
27857;SDS011;16852;51.446;6.528;2022-08-19T05:38:15;23.38;;;19.05;;
27857;SDS011;16852;51.446;6.528;2022-08-19T05:40:16;25.35;;;20.33;;
27857;SDS011;16852;51.446;6.528;2022-08-19T05:42:17;29.58;;;22.67;;
27857;SDS011;16852;51.446;6.528;2022-08-19T05:44:19;25.02;;;21.23;;
27857;SDS011;16852;51.446;6.528;2022-08-19T05:46:21;28.17;;;22.33;;
27857;SDS011;16852;51.446;6.528;2022-08-19T05:48:22;27.60;;;22.48;;
27857;SDS011;16852;51.446;6.528;2022-08-19T05:50:22;29.80;;;23.73;;
27857;SDS011;16852;51.446;6.528;2022-08-19T05:52:24;26.73;;;21.73;;
27857;SDS011;16852;51.446;6.528;2022-08-19T05:54:24;25.27;;;20.85;;
27857;SDS011;16852;51.446;6.528;2022-08-19T05:56:25;24.73;;;20.70;;
27857;SDS011;16852;51.446;6.528;2022-08-19T05:58:26;26.73;;;22.35;;
27857;SDS011;16852;51.446;6.528;2022-08-19T06:00:27;26.10;;;21.77;;
27857;SDS011;16852;51.446;6.528;2022-08-19T06:02:28;30.55;;;23.20;;
27857;SDS011;16852;51.446;6.528;2022-08-19T06:04:30;30.10;;;24.95;;
27857;SDS011;16852;51.446;6.528;2022-08-19T06:06:30;30.40;;;25.08;;
27857;SDS011;16852;51.446;6.528;2022-08-19T06:08:34;29.27;;;23.48;;
27857;SDS011;16852;51.446;6.528;2022-08-19T06:10:36;27.90;;;22.20;;
27857;SDS011;16852;51.446;6.528;2022-08-19T06:12:37;31.23;;;25.30;;
27857;SDS011;16852;51.446;6.528;2022-08-19T06:14:37;29.42;;;24.02;;
27857;SDS011;16852;51.446;6.528;2022-08-19T06:16:39;31.80;;;24.60;;
27857;SDS011;16852;51.446;6.528;2022-08-19T06:18:40;30.60;;;24.98;;
27857;SDS011;16852;51.446;6.528;2022-08-19T06:20:41;29.42;;;22.95;;
27857;SDS011;16852;51.446;6.528;2022-08-19T06:22:42;32.25;;;24.38;;
27857;SDS011;16852;51.446;6.528;2022-08-19T06:24:45;31.05;;;24.23;;
27857;SDS011;16852;51.446;6.528;2022-08-19T06:26:47;27.23;;;22.35;;
27857;SDS011;16852;51.446;6.528;2022-08-19T06:30:49;31.02;;;23.95;;
27857;SDS011;16852;51.446;6.528;2022-08-19T06:32:51;31.80;;;25.08;;
27857;SDS011;16852;51.446;6.528;2022-08-19T06:34:51;29.75;;;24.02;;
27857;SDS011;16852;51.446;6.528;2022-08-19T06:36:52;28.42;;;24.08;;
27857;SDS011;16852;51.446;6.528;2022-08-19T06:38:54;32.33;;;26.13;;
27857;SDS011;16852;51.446;6.528;2022-08-19T06:41:04;38.20;;;29.60;;
27857;SDS011;16852;51.446;6.528;2022-08-19T06:43:05;34.35;;;27.02;;
27857;SDS011;16852;51.446;6.528;2022-08-19T06:45:06;31.38;;;23.10;;
27857;SDS011;16852;51.446;6.528;2022-08-19T06:47:09;29.70;;;23.58;;
27857;SDS011;16852;51.446;6.528;2022-08-19T06:49:11;32.50;;;23.23;;
27857;SDS011;16852;51.446;6.528;2022-08-19T06:51:14;28.55;;;22.17;;
27857;SDS011;16852;51.446;6.528;2022-08-19T06:53:18;27.67;;;22.58;;
27857;SDS011;16852;51.446;6.528;2022-08-19T06:55:19;25.48;;;21.10;;
27857;SDS011;16852;51.446;6.528;2022-08-19T06:57:19;22.63;;;18.45;;
27857;SDS011;16852;51.446;6.528;2022-08-19T06:59:22;27.73;;;20.25;;
27857;SDS011;16852;51.446;6.528;2022-08-19T07:01:27;23.77;;;18.65;;
27857;SDS011;16852;51.446;6.528;2022-08-19T07:03:31;28.00;;;21.52;;
27857;SDS011;16852;51.446;6.528;2022-08-19T07:05:39;25.52;;;19.75;;
27857;SDS011;16852;51.446;6.528;2022-08-19T07:07:40;26.67;;;19.30;;
27857;SDS011;16852;51.446;6.528;2022-08-19T07:09:43;18.48;;;14.77;;
27857;SDS011;16852;51.446;6.528;2022-08-19T07:11:45;20.42;;;13.80;;
27857;SDS011;16852;51.446;6.528;2022-08-19T07:13:47;23.45;;;16.77;;
27857;SDS011;16852;51.446;6.528;2022-08-19T07:15:48;18.10;;;13.10;;
27857;SDS011;16852;51.446;6.528;2022-08-19T07:17:50;22.20;;;17.13;;
27857;SDS011;16852;51.446;6.528;2022-08-19T07:19:51;20.63;;;16.88;;
27857;SDS011;16852;51.446;6.528;2022-08-19T07:21:52;21.45;;;16.77;;
27857;SDS011;16852;51.446;6.528;2022-08-19T07:23:55;18.48;;;14.98;;
27857;SDS011;16852;51.446;6.528;2022-08-19T07:27:57;22.40;;;15.98;;
27857;SDS011;16852;51.446;6.528;2022-08-19T07:29:58;24.88;;;18.42;;
27857;SDS011;16852;51.446;6.528;2022-08-19T07:31:58;29.27;;;22.83;;
27857;SDS011;16852;51.446;6.528;2022-08-19T07:34:00;39.42;;;23.42;;
27857;SDS011;16852;51.446;6.528;2022-08-19T07:36:01;36.28;;;22.90;;
27857;SDS011;16852;51.446;6.528;2022-08-19T07:38:05;39.42;;;23.77;;
27857;SDS011;16852;51.446;6.528;2022-08-19T07:40:06;35.65;;;26.95;;
27857;SDS011;16852;51.446;6.528;2022-08-19T07:42:08;31.58;;;22.65;;
27857;SDS011;16852;51.446;6.528;2022-08-19T07:46:11;41.55;;;28.10;;
27857;SDS011;16852;51.446;6.528;2022-08-19T07:48:13;45.58;;;28.45;;
27857;SDS011;16852;51.446;6.528;2022-08-19T07:50:14;34.72;;;25.10;;
27857;SDS011;16852;51.446;6.528;2022-08-19T07:52:16;41.63;;;29.25;;
27857;SDS011;16852;51.446;6.528;2022-08-19T07:54:17;38.25;;;28.35;;
27857;SDS011;16852;51.446;6.528;2022-08-19T07:56:19;39.95;;;28.33;;
27857;SDS011;16852;51.446;6.528;2022-08-19T07:58:21;30.45;;;22.70;;
27857;SDS011;16852;51.446;6.528;2022-08-19T08:00:23;30.00;;;22.33;;
27857;SDS011;16852;51.446;6.528;2022-08-19T08:02:23;30.20;;;22.23;;
27857;SDS011;16852;51.446;6.528;2022-08-19T08:04:24;38.05;;;26.95;;
27857;SDS011;16852;51.446;6.528;2022-08-19T08:06:51;30.90;;;23.33;;
27857;SDS011;16852;51.446;6.528;2022-08-19T08:09:12;38.42;;;28.20;;
27857;SDS011;16852;51.446;6.528;2022-08-19T08:11:20;33.00;;;23.83;;
27857;SDS011;16852;51.446;6.528;2022-08-19T08:13:21;32.72;;;22.83;;
27857;SDS011;16852;51.446;6.528;2022-08-19T08:15:22;34.67;;;23.40;;
27857;SDS011;16852;51.446;6.528;2022-08-19T08:17:24;35.65;;;23.98;;
27857;SDS011;16852;51.446;6.528;2022-08-19T08:19:26;30.83;;;22.42;;
27857;SDS011;16852;51.446;6.528;2022-08-19T08:21:27;33.72;;;22.38;;
27857;SDS011;16852;51.446;6.528;2022-08-19T08:23:28;31.70;;;22.75;;
27857;SDS011;16852;51.446;6.528;2022-08-19T08:25:30;32.67;;;22.37;;
27857;SDS011;16852;51.446;6.528;2022-08-19T08:27:31;32.45;;;24.20;;
27857;SDS011;16852;51.446;6.528;2022-08-19T08:29:34;28.50;;;20.13;;
27857;SDS011;16852;51.446;6.528;2022-08-19T08:31:35;27.65;;;20.30;;
27857;SDS011;16852;51.446;6.528;2022-08-19T08:33:36;31.60;;;21.13;;
27857;SDS011;16852;51.446;6.528;2022-08-19T08:35:37;27.25;;;19.25;;
27857;SDS011;16852;51.446;6.528;2022-08-19T08:37:41;28.45;;;19.73;;
27857;SDS011;16852;51.446;6.528;2022-08-19T08:39:43;30.08;;;21.38;;
27857;SDS011;16852;51.446;6.528;2022-08-19T08:41:46;32.80;;;23.35;;
27857;SDS011;16852;51.446;6.528;2022-08-19T08:44:02;29.38;;;20.92;;
27857;SDS011;16852;51.446;6.528;2022-08-19T08:46:05;24.02;;;18.60;;
27857;SDS011;16852;51.446;6.528;2022-08-19T08:48:20;24.65;;;18.60;;
27857;SDS011;16852;51.446;6.528;2022-08-19T08:52:43;23.17;;;17.17;;
27857;SDS011;16852;51.446;6.528;2022-08-19T08:54:47;22.23;;;17.17;;
27857;SDS011;16852;51.446;6.528;2022-08-19T08:56:50;21.55;;;16.38;;
27857;SDS011;16852;51.446;6.528;2022-08-19T08:58:58;27.20;;;17.77;;
27857;SDS011;16852;51.446;6.528;2022-08-19T09:01:11;30.20;;;20.60;;
27857;SDS011;16852;51.446;6.528;2022-08-19T09:03:17;28.05;;;21.15;;
27857;SDS011;16852;51.446;6.528;2022-08-19T09:05:19;30.10;;;21.05;;
27857;SDS011;16852;51.446;6.528;2022-08-19T09:07:25;30.90;;;19.08;;
27857;SDS011;16852;51.446;6.528;2022-08-19T09:09:44;23.55;;;16.60;;
27857;SDS011;16852;51.446;6.528;2022-08-19T09:14:32;28.70;;;20.10;;
27857;SDS011;16852;51.446;6.528;2022-08-19T09:16:41;19.83;;;15.43;;
27857;SDS011;16852;51.446;6.528;2022-08-19T09:18:43;22.48;;;16.40;;
27857;SDS011;16852;51.446;6.528;2022-08-19T09:20:46;22.05;;;15.63;;
27857;SDS011;16852;51.446;6.528;2022-08-19T09:22:47;19.75;;;15.15;;
27857;SDS011;16852;51.446;6.528;2022-08-19T09:24:49;24.00;;;18.40;;
27857;SDS011;16852;51.446;6.528;2022-08-19T09:26:52;21.77;;;15.25;;
27857;SDS011;16852;51.446;6.528;2022-08-19T09:28:53;26.25;;;16.90;;
27857;SDS011;16852;51.446;6.528;2022-08-19T09:30:54;19.53;;;14.60;;
27857;SDS011;16852;51.446;6.528;2022-08-19T09:32:55;22.35;;;15.20;;
27857;SDS011;16852;51.446;6.528;2022-08-19T09:34:56;26.05;;;19.10;;
27857;SDS011;16852;51.446;6.528;2022-08-19T09:36:58;22.08;;;13.88;;
27857;SDS011;16852;51.446;6.528;2022-08-19T09:39:00;21.45;;;15.68;;
27857;SDS011;16852;51.446;6.528;2022-08-19T09:41:04;19.83;;;15.20;;
27857;SDS011;16852;51.446;6.528;2022-08-19T09:43:06;23.08;;;17.20;;
27857;SDS011;16852;51.446;6.528;2022-08-19T09:45:07;23.90;;;18.55;;
27857;SDS011;16852;51.446;6.528;2022-08-19T09:47:09;22.20;;;16.60;;
27857;SDS011;16852;51.446;6.528;2022-08-19T09:49:11;20.02;;;15.48;;
27857;SDS011;16852;51.446;6.528;2022-08-19T09:51:12;14.73;;;12.25;;
27857;SDS011;16852;51.446;6.528;2022-08-19T09:53:17;17.42;;;12.32;;
27857;SDS011;16852;51.446;6.528;2022-08-19T09:55:19;18.98;;;13.45;;
27857;SDS011;16852;51.446;6.528;2022-08-19T09:57:19;15.73;;;12.80;;
27857;SDS011;16852;51.446;6.528;2022-08-19T09:59:20;14.93;;;11.48;;
27857;SDS011;16852;51.446;6.528;2022-08-19T10:01:22;15.43;;;11.73;;
27857;SDS011;16852;51.446;6.528;2022-08-19T10:03:25;15.00;;;11.20;;
27857;SDS011;16852;51.446;6.528;2022-08-19T10:05:27;14.35;;;11.00;;
27857;SDS011;16852;51.446;6.528;2022-08-19T10:07:46;17.17;;;9.65;;
27857;SDS011;16852;51.446;6.528;2022-08-19T10:09:46;23.75;;;13.93;;
27857;SDS011;16852;51.446;6.528;2022-08-19T10:11:47;16.23;;;12.27;;
27857;SDS011;16852;51.446;6.528;2022-08-19T10:13:49;15.00;;;10.15;;
27857;SDS011;16852;51.446;6.528;2022-08-19T10:15:50;16.42;;;10.63;;
27857;SDS011;16852;51.446;6.528;2022-08-19T10:17:52;16.23;;;12.10;;
27857;SDS011;16852;51.446;6.528;2022-08-19T10:19:52;13.50;;;10.68;;
27857;SDS011;16852;51.446;6.528;2022-08-19T10:21:53;14.75;;;9.80;;
27857;SDS011;16852;51.446;6.528;2022-08-19T10:23:55;13.00;;;9.60;;
27857;SDS011;16852;51.446;6.528;2022-08-19T10:25:59;14.13;;;8.93;;
27857;SDS011;16852;51.446;6.528;2022-08-19T10:28:01;12.63;;;8.18;;
27857;SDS011;16852;51.446;6.528;2022-08-19T10:30:02;15.23;;;11.18;;
27857;SDS011;16852;51.446;6.528;2022-08-19T10:32:04;11.73;;;8.98;;
27857;SDS011;16852;51.446;6.528;2022-08-19T10:34:07;16.60;;;11.93;;
27857;SDS011;16852;51.446;6.528;2022-08-19T10:36:13;16.48;;;12.10;;
27857;SDS011;16852;51.446;6.528;2022-08-19T10:38:16;15.07;;;10.38;;
27857;SDS011;16852;51.446;6.528;2022-08-19T10:40:17;17.20;;;12.32;;
27857;SDS011;16852;51.446;6.528;2022-08-19T10:42:17;16.55;;;12.57;;
27857;SDS011;16852;51.446;6.528;2022-08-19T10:44:18;16.90;;;11.52;;
27857;SDS011;16852;51.446;6.528;2022-08-19T10:48:23;13.77;;;10.07;;
27857;SDS011;16852;51.446;6.528;2022-08-19T10:50:23;11.73;;;8.63;;
27857;SDS011;16852;51.446;6.528;2022-08-19T10:52:44;15.02;;;10.13;;
27857;SDS011;16852;51.446;6.528;2022-08-19T10:54:46;19.10;;;10.73;;
27857;SDS011;16852;51.446;6.528;2022-08-19T10:57:05;13.95;;;8.27;;
27857;SDS011;16852;51.446;6.528;2022-08-19T10:59:06;13.00;;;9.85;;
27857;SDS011;16852;51.446;6.528;2022-08-19T11:01:07;15.73;;;9.80;;
27857;SDS011;16852;51.446;6.528;2022-08-19T11:03:07;10.85;;;8.43;;
27857;SDS011;16852;51.446;6.528;2022-08-19T11:05:08;9.32;;;6.65;;
27857;SDS011;16852;51.446;6.528;2022-08-19T11:07:12;12.10;;;8.68;;
27857;SDS011;16852;51.446;6.528;2022-08-19T11:09:16;9.95;;;8.25;;
27857;SDS011;16852;51.446;6.528;2022-08-19T11:11:19;10.13;;;7.57;;
27857;SDS011;16852;51.446;6.528;2022-08-19T11:13:21;15.98;;;9.23;;
27857;SDS011;16852;51.446;6.528;2022-08-19T11:15:22;15.25;;;8.52;;
27857;SDS011;16852;51.446;6.528;2022-08-19T11:17:24;10.77;;;8.07;;
27857;SDS011;16852;51.446;6.528;2022-08-19T11:19:25;9.02;;;7.05;;
27857;SDS011;16852;51.446;6.528;2022-08-19T11:21:26;7.80;;;6.22;;
27857;SDS011;16852;51.446;6.528;2022-08-19T11:23:32;8.68;;;6.65;;
27857;SDS011;16852;51.446;6.528;2022-08-19T11:25:32;8.13;;;5.82;;
27857;SDS011;16852;51.446;6.528;2022-08-19T11:27:37;11.37;;;6.83;;
27857;SDS011;16852;51.446;6.528;2022-08-19T11:29:39;8.18;;;6.00;;
27857;SDS011;16852;51.446;6.528;2022-08-19T11:31:41;8.35;;;6.28;;
27857;SDS011;16852;51.446;6.528;2022-08-19T11:33:44;9.40;;;5.50;;
27857;SDS011;16852;51.446;6.528;2022-08-19T11:35:46;9.10;;;5.17;;
27857;SDS011;16852;51.446;6.528;2022-08-19T11:37:46;7.75;;;5.45;;
27857;SDS011;16852;51.446;6.528;2022-08-19T11:39:47;7.78;;;4.85;;
27857;SDS011;16852;51.446;6.528;2022-08-19T11:41:48;8.18;;;5.18;;
27857;SDS011;16852;51.446;6.528;2022-08-19T11:43:49;10.60;;;6.35;;
27857;SDS011;16852;51.446;6.528;2022-08-19T11:45:50;7.00;;;4.63;;
27857;SDS011;16852;51.446;6.528;2022-08-19T11:47:51;7.18;;;4.93;;
27857;SDS011;16852;51.446;6.528;2022-08-19T11:49:52;8.13;;;5.40;;
27857;SDS011;16852;51.446;6.528;2022-08-19T11:51:53;6.32;;;4.85;;
27857;SDS011;16852;51.446;6.528;2022-08-19T11:53:55;8.23;;;4.97;;
27857;SDS011;16852;51.446;6.528;2022-08-19T11:55:56;7.60;;;4.45;;
27857;SDS011;16852;51.446;6.528;2022-08-19T11:57:57;5.40;;;3.70;;
27857;SDS011;16852;51.446;6.528;2022-08-19T11:59:58;4.40;;;3.63;;
27857;SDS011;16852;51.446;6.528;2022-08-19T12:01:58;5.45;;;3.70;;
27857;SDS011;16852;51.446;6.528;2022-08-19T12:03:59;7.72;;;3.88;;
27857;SDS011;16852;51.446;6.528;2022-08-19T12:06:04;6.70;;;4.75;;
27857;SDS011;16852;51.446;6.528;2022-08-19T12:08:09;5.75;;;3.60;;
27857;SDS011;16852;51.446;6.528;2022-08-19T12:10:11;6.43;;;4.22;;
27857;SDS011;16852;51.446;6.528;2022-08-19T12:12:12;7.13;;;4.30;;
27857;SDS011;16852;51.446;6.528;2022-08-19T12:14:13;6.10;;;4.10;;
27857;SDS011;16852;51.446;6.528;2022-08-19T12:16:15;4.55;;;3.70;;
27857;SDS011;16852;51.446;6.528;2022-08-19T12:18:18;5.60;;;3.40;;
27857;SDS011;16852;51.446;6.528;2022-08-19T12:20:19;5.90;;;3.95;;
27857;SDS011;16852;51.446;6.528;2022-08-19T12:22:19;7.57;;;4.10;;
27857;SDS011;16852;51.446;6.528;2022-08-19T12:24:21;7.18;;;3.78;;
27857;SDS011;16852;51.446;6.528;2022-08-19T12:26:23;4.68;;;3.40;;